Main page
METAR-TAF:

METAR-TAF

Airports :

Bom Jesus da Lapa Airport

Bom Jesus da Lapa, Bahia, Brazil

latitude: 13-16S, longitude: 043-25W, elevation: 440 m

Current weather observation

The report was made 13 hours and 29 minutes ago, at 15:00 UTC
Wind 3 kt from the East/Southeast
Temperature 30°C
Humidity 52%
Pressure
Visibility 10 km or more
Scattered clouds at a height of 2000 ft
Scattered clouds at a height of 10000 ft

METAR: SBLP 131500Z 12003KT 9999 SCT020 SCT100 30/19 Q////

Time: 02:29 (04:29 UTC)

Forecast

The report was made 6 hours and 29 minutes ago, at 22:00 UTC
Forecast valid from 14 at 00 UTC to 14 at 12 UTC
Wind 5 kt from the South/Southwest
Visibility 10 km or more
Scattered clouds at a height of 2500 ft

TAF: SBLP 132200Z 1400/1412 21005KT 9999 SCT025 TX25/1400Z TN23/1409Z RMK PCH

Weather observations and forecasts of more than 4000 airports (METAR and TAF reports).

The available stations are represented by yellow and red dots on the map.

Hover mouse over dot to see the name of the station.

Then click to see weather observations and forecasts.

To change the map : click on the green buttons with a black cross to zoom in, on the green button with a dash to zoom out, or on the green arrows for adjacent maps.


METAR-TAF: